Time;durP1;ratioP1;P1;durP2;ratioP2;P2;SDS_P1;SDS_P2;PMS_P1;PMS_P2;Temp;Humidity;BMP_temperature;BMP_pressure;BME280_temperature;BME280_humidity;BME280_pressure;Samples;Min_cycle;Max_cycle;Signal;HPM_P1;HPM_P2
2023/08/14 00:00:43;;;;;;;;;;;;;;;22.72;78.53;99853.34;1087296;47;20066;-88
2023/08/14 00:01:47;;;;;;;;;;;;;;;22.76;78.01;99851.84;1087407;47;19949;-88
2023/08/14 00:02:47;;;;;;;;;;;;;;;22.76;77.91;99846.38;1087518;54;19942;-88
2023/08/14 00:03:50;;;;;;;;;;;;;;;22.76;77.71;99840.94;1087544;54;20659;-88
2023/08/14 00:04:53;;;;;;;;;;;;;;;22.78;77.39;99843.41;1087442;47;19954;-88
2023/08/14 00:05:54;;;;;;;;;;;;;;;22.69;78.13;99837.44;1087186;47;21209;-89
2023/08/14 00:06:57;;;;;;;;;;;;;;;22.68;78.53;99833.06;1087361;47;19943;-88
2023/08/14 00:07:58;;;;;;;;;;;;;;;22.70;77.94;99836.38;1087238;47;19942;-89
2023/08/14 00:09:04;;;;;;;;;;;;;;;22.74;77.90;99832.16;1087338;47;19990;-87
2023/08/14 00:10:05;;;;;;;;;;;;;;;22.74;77.80;99832.97;1087332;47;19966;-88
2023/08/14 00:11:09;;;;;;;;;;;;;;;22.75;77.73;99831.09;1087384;47;19986;-89
2023/08/14 00:12:10;;;;;;;;;;;;;;;22.78;77.76;99832.53;1087337;54;19954;-89
2023/08/14 00:13:13;;;;;;;;;;;;;;;22.77;77.37;99837.13;1088845;39;20647;-88
2023/08/14 00:14:14;;;;;;;;;;;;;;;22.80;77.31;99830.41;1087330;47;19995;-88
2023/08/14 00:15:17;;;;;;;;;;;;;;;22.80;77.26;99831.22;1087449;47;19954;-90
2023/08/14 00:16:18;;;;;;;;;;;;;;;22.77;77.49;99831.69;1087427;47;20247;-89
2023/08/14 00:17:19;;;;;;;;;;;;;;;22.76;77.50;99824.59;1087333;46;19942;-89
2023/08/14 00:18:23;;;;;;;;;;;;;;;22.79;77.73;99823.28;1087212;46;19949;-89
2023/08/14 00:19:23;;;;;;;;;;;;;;;22.79;77.36;99826.84;1087235;47;20022;-88
2023/08/14 00:20:27;;;;;;;;;;;;;;;22.77;77.70;99820.78;1087266;54;19943;-86
2023/08/14 00:21:27;;;;;;;;;;;;;;;22.80;77.36;99820.31;1087220;47;19974;-88
2023/08/14 00:22:31;;;;;;;;;;;;;;;22.80;77.46;99817.59;1087301;47;19943;-88
2023/08/14 00:23:31;;;;;;;;;;;;;;;22.81;77.71;99819.25;1087096;47;19950;-87
2023/08/14 00:24:37;;;;;;;;;;;;;;;22.82;77.49;99818.19;1087260;47;19990;-87
2023/08/14 00:25:38;;;;;;;;;;;;;;;22.81;77.33;99818.44;1087214;51;19942;-87
2023/08/14 00:26:41;;;;;;;;;;;;;;;22.80;77.77;99811.34;1087340;47;19943;-87
2023/08/14 00:27:42;;;;;;;;;;;;;;;22.78;77.75;99811.53;1087295;54;19998;-88
2023/08/14 00:28:43;;;;;;;;;;;;;;;22.79;77.66;99802.31;1087168;47;19943;-86
2023/08/14 00:29:46;;;;;;;;;;;;;;;22.80;77.64;99808.59;1087227;54;19943;-87
2023/08/14 00:30:47;;;;;;;;;;;;;;;22.81;77.64;99813.81;1087327;47;19943;-86
2023/08/14 00:31:50;;;;;;;;;;;;;;;22.82;77.60;99815.47;1087202;47;19942;-88
2023/08/14 00:32:51;;;;;;;;;;;;;;;22.83;77.68;99814.41;1087097;47;19942;-88
2023/08/14 00:33:55;;;;;;;;;;;;;;;22.85;77.36;99814.19;1087196;54;19965;-87
2023/08/14 00:34:55;;;;;;;;;;;;;;;22.85;77.81;99820.47;1087181;47;19942;-88
2023/08/14 00:35:59;;;;;;;;;;;;;;;22.84;77.64;99823.41;1087201;47;19954;-87
2023/08/14 00:36:59;;;;;;;;;;;;;;;22.83;77.83;99819.88;1087254;54;19950;-88
2023/08/14 00:38:04;;;;;;;;;;;;;;;22.81;77.95;99818.44;1087182;47;20005;-89
2023/08/14 00:39:05;;;;;;;;;;;;;;;22.76;77.93;99813.69;1087219;54;19949;-88
2023/08/14 00:40:12;;;;;;;;;;;;;;;22.78;77.90;99810.72;1087470;54;19943;-88
2023/08/14 00:41:13;;;;;;;;;;;;;;;22.76;77.86;99813.69;1087647;54;19954;-88
2023/08/14 00:42:17;;;;;;;;;;;;;;;22.76;77.86;99813.69;1087233;46;20025;-88
2023/08/14 00:43:17;;;;;;;;;;;;;;;22.78;78.26;99816.19;1087272;54;19974;-89
2023/08/14 00:44:21;;;;;;;;;;;;;;;22.73;78.16;99814.16;1087336;47;19942;-87
2023/08/14 07:26:14;;;;;;;;;;;;;;;24.84;62.08;99710.78;1086740;54;19943;-90
2023/08/14 07:27:17;;;;;;;;;;;;;;;24.93;62.31;99709.28;1086883;46;19939;-88
2023/08/14 07:28:21;;;;;;;;;;;;;;;24.91;61.96;99705.97;1087658;54;19950;-89
2023/08/14 07:29:23;;;;;;;;;;;;;;;25.03;61.80;99709.41;1087861;54;19966;-89
2023/08/14 07:30:26;;;;;;;;;;;;;;;25.12;61.72;99704.38;1087832;54;19973;-87
2023/08/14 07:31:27;;;;;;;;;;;;;;;25.10;61.69;99709.25;1087636;47;19942;-88
2023/08/14 07:32:30;;;;;;;;;;;;;;;25.22;61.73;99707.28;1087293;54;19966;-85
2023/08/14 07:33:31;;;;;;;;;;;;;;;25.23;61.07;99708.09;1087573;54;19943;-88
2023/08/14 07:34:34;;;;;;;;;;;;;;;25.16;60.68;99710.16;1087292;47;19938;-89
2023/08/14 07:35:35;;;;;;;;;;;;;;;25.35;60.54;99710.75;1087394;54;19943;-86
2023/08/14 07:36:40;;;;;;;;;;;;;;;25.45;60.54;99710.94;1087587;54;19957;-87
2023/08/14 07:37:40;;;;;;;;;;;;;;;25.63;60.25;99712.53;1087582;46;19942;-87
2023/08/14 07:38:44;;;;;;;;;;;;;;;25.73;59.79;99708.28;1087557;54;19946;-89
2023/08/14 07:39:44;;;;;;;;;;;;;;;25.78;59.45;99709.16;1087346;47;20002;-87
2023/08/14 07:40:53;;;;;;;;;;;;;;;25.90;58.08;99700.81;1087447;47;19942;-86
2023/08/14 07:41:56;;;;;;;;;;;;;;;25.93;58.51;99700.31;1087559;47;19939;-87
2023/08/14 07:43:00;;;;;;;;;;;;;;;25.88;58.75;99703.00;1087777;47;19939;-87
2023/08/14 07:44:00;;;;;;;;;;;;;;;25.67;58.93;99702.75;1087735;46;19939;-89
2023/08/14 07:45:04;;;;;;;;;;;;;;;25.79;59.12;99710.81;1087948;47;19938;-88
2023/08/14 07:46:05;;;;;;;;;;;;;;;25.86;59.21;99702.44;1088150;54;19943;-87
2023/08/14 07:47:08;;;;;;;;;;;;;;;25.97;58.71;99706.13;1088187;47;19951;-88
2023/08/14 07:48:09;;;;;;;;;;;;;;;25.93;58.20;99696.78;1087956;47;19938;-87
2023/08/14 07:49:13;;;;;;;;;;;;;;;26.09;58.53;99700.53;1087199;39;20665;-87
2023/08/14 07:50:16;;;;;;;;;;;;;;;26.03;58.40;99699.59;1087414;47;19946;-88
2023/08/14 07:51:19;;;;;;;;;;;;;;;26.22;57.49;99700.13;1087319;54;19943;-89
2023/08/14 07:52:20;;;;;;;;;;;;;;;26.33;57.37;99692.84;1087356;54;19942;-89
2023/08/14 07:53:23;;;;;;;;;;;;;;;26.53;56.91;99696.88;1087303;47;19962;-88
2023/08/14 07:54:24;;;;;;;;;;;;;;;26.66;57.16;99690.13;1087385;46;19965;-88
2023/08/14 07:55:29;;;;;;;;;;;;;;;26.68;55.91;99693.47;1087133;47;19939;-88
2023/08/14 07:56:30;;;;;;;;;;;;;;;26.73;55.36;99690.78;1087179;54;19950;-87
2023/08/14 07:57:36;;;;;;;;;;;;;;;26.85;55.27;99685.16;1087312;54;19943;-88
2023/08/14 07:58:39;;;;;;;;;;;;;;;26.91;54.85;99693.16;1087348;54;19943;-89
2023/08/14 07:59:43;;;;;;;;;;;;;;;26.99;54.97;99699.22;1087158;47;19950;-88
2023/08/14 08:00:45;;;;;;;;;;;;;;;27.14;54.51;99690.28;1087224;54;19943;-87
2023/08/14 08:01:48;;;;;;;;;;;;;;;27.10;54.31;99690.00;1087253;54;19984;-88
2023/08/14 08:02:49;;;;;;;;;;;;;;;27.23;54.03;99695.00;1087170;46;19938;-88
2023/08/14 08:03:53;;;;;;;;;;;;;;;27.32;52.86;99689.03;1087050;54;20740;-88
2023/08/14 08:04:54;;;;;;;;;;;;;;;27.42;53.47;99693.75;1087163;47;19942;-87
2023/08/14 08:05:57;;;;;;;;;;;;;;;27.49;53.63;99689.69;1087128;47;19942;-89
2023/08/14 08:06:58;;;;;;;;;;;;;;;27.51;53.45;99692.19;1087222;47;19973;-88
2023/08/14 08:08:02;;;;;;;;;;;;;;;27.67;53.00;99687.63;1087188;47;19965;-86
2023/08/14 08:09:03;;;;;;;;;;;;;;;27.84;52.63;99693.72;1086833;54;19942;-86
2023/08/14 08:10:07;;;;;;;;;;;;;;;27.94;52.77;99683.88;1087035;54;19969;-88
2023/08/14 08:11:08;;;;;;;;;;;;;;;28.06;51.98;99692.69;1090904;39;21038;-86
2023/08/14 08:12:15;;;;;;;;;;;;;;;28.11;52.06;99684.50;1087078;46;19939;-89
2023/08/14 08:13:19;;;;;;;;;;;;;;;28.20;51.86;99689.47;1088012;39;20918;-89
2023/08/14 08:14:22;;;;;;;;;;;;;;;28.14;51.63;99689.47;1087033;47;19946;-89
2023/08/14 08:15:23;;;;;;;;;;;;;;;28.15;52.52;99699.34;1087005;47;19938;-88
2023/08/14 08:16:26;;;;;;;;;;;;;;;28.15;52.38;99698.53;1088242;39;20645;-88
2023/08/14 08:17:27;;;;;;;;;;;;;;;28.20;51.93;99697.72;1087175;54;19962;-89
2023/08/14 08:18:32;;;;;;;;;;;;;;;28.22;51.99;99693.59;1087224;54;20750;-89
2023/08/14 08:19:32;;;;;;;;;;;;;;;28.18;52.07;99698.00;1087289;46;20324;-87
2023/08/14 08:20:36;;;;;;;;;;;;;;;28.24;51.99;99704.34;1087378;54;19942;-87
2023/08/14 08:21:37;;;;;;;;;;;;;;;28.36;51.35;99701.31;1086996;46;19972;-86
2023/08/14 08:22:37;;;;;;;;;;;;;;;28.42;51.28;99703.81;1087024;47;20372;-88
2023/08/14 08:23:41;;;;;;;;;;;;;;;28.47;51.41;99712.06;1089459;39;20769;-87
2023/08/14 08:24:42;;;;;;;;;;;;;;;28.57;51.50;99704.94;1087060;54;20687;-88
2023/08/14 08:25:46;;;;;;;;;;;;;;;28.61;50.95;99703.28;1087225;47;19968;-89
2023/08/14 08:26:47;;;;;;;;;;;;;;;28.64;51.50;99709.06;1087308;47;20007;-88
2023/08/14 08:27:50;;;;;;;;;;;;;;;28.73;51.35;99714.88;1087146;46;20080;-88
2023/08/14 08:28:53;;;;;;;;;;;;;;;28.90;50.90;99713.78;1087202;47;19939;-88
2023/08/14 08:29:58;;;;;;;;;;;;;;;28.91;50.50;99715.41;1088201;39;20634;-88
2023/08/14 08:30:59;;;;;;;;;;;;;;;29.07;50.54;99717.09;1087192;47;19938;-88
2023/08/14 08:32:02;;;;;;;;;;;;;;;29.13;50.11;99723.41;1087271;54;19943;-89
2023/08/14 08:33:03;;;;;;;;;;;;;;;29.21;49.79;99727.50;1086806;47;19938;-88
2023/08/14 08:34:07;;;;;;;;;;;;;;;29.30;49.96;99725.84;1087222;46;19949;-89
2023/08/14 08:35:08;;;;;;;;;;;;;;;29.32;50.18;99720.94;1086911;54;19969;-86
2023/08/14 08:36:11;;;;;;;;;;;;;;;29.30;49.57;99725.03;1086960;54;19948;-88
2023/08/14 08:37:12;;;;;;;;;;;;;;;29.37;49.81;99722.84;1087366;47;19942;-88
2023/08/14 08:38:16;;;;;;;;;;;;;;;29.45;49.86;99724.22;1087235;47;19942;-89
2023/08/14 08:39:17;;;;;;;;;;;;;;;29.51;49.43;99723.94;1086882;47;19950;-87
2023/08/14 08:40:22;;;;;;;;;;;;;;;29.62;48.99;99735.72;1089353;39;21133;-88
2023/08/14 08:41:24;;;;;;;;;;;;;;;29.78;48.94;99725.50;1087180;47;19968;-87
2023/08/14 08:42:29;;;;;;;;;;;;;;;29.84;48.27;99729.06;1087421;39;20891;-87
2023/08/14 08:43:31;;;;;;;;;;;;;;;29.95;48.69;99733.44;1087105;46;19939;-86
2023/08/14 08:44:41;;;;;;;;;;;;;;;29.97;48.92;99735.94;1086824;47;19966;-88
2023/08/14 08:45:45;;;;;;;;;;;;;;;30.12;48.85;99729.53;1086956;46;19946;-89
2023/08/14 08:46:50;;;;;;;;;;;;;;;30.24;48.55;99735.50;1087180;47;19963;-87
2023/08/14 08:47:54;;;;;;;;;;;;;;;30.34;48.29;99737.41;1087194;47;20933;-87
2023/08/14 08:48:58;;;;;;;;;;;;;;;30.35;48.07;99734.34;1087102;47;19965;-86
2023/08/14 08:49:59;;;;;;;;;;;;;;;30.50;47.95;99727.91;1086950;47;21119;-88
2023/08/14 08:51:03;;;;;;;;;;;;;;;30.65;47.69;99729.78;1087281;54;19978;-87
2023/08/14 08:52:04;;;;;;;;;;;;;;;30.32;47.30;99725.81;1087595;39;20926;-88
2023/08/14 08:53:08;;;;;;;;;;;;;;;30.30;48.03;99734.38;1087276;54;19943;-89
2023/08/14 08:54:09;;;;;;;;;;;;;;;30.36;47.73;99721.41;1087215;47;19946;-86
2023/08/14 08:55:13;;;;;;;;;;;;;;;30.33;47.35;99725.53;1087217;54;19954;-86
2023/08/14 08:56:14;;;;;;;;;;;;;;;30.45;47.48;99708.66;1087201;46;20014;-86
2023/08/14 08:57:17;;;;;;;;;;;;;;;30.53;47.39;99718.28;1087190;47;19938;-87
2023/08/14 08:58:19;;;;;;;;;;;;;;;30.79;46.96;99707.88;1087194;47;19946;-87
2023/08/14 08:59:25;;;;;;;;;;;;;;;30.92;46.40;99717.41;1087039;46;19939;-86
2023/08/14 09:00:29;;;;;;;;;;;;;;;30.81;46.34;99710.34;1087149;46;20932;-87
2023/08/14 09:01:33;;;;;;;;;;;;;;;30.92;46.59;99716.63;1087320;54;19946;-88
2023/08/14 09:02:33;;;;;;;;;;;;;;;30.92;46.50;99709.16;1086971;47;19968;-87
2023/08/14 09:03:37;;;;;;;;;;;;;;;30.99;46.36;99713.50;1087207;54;19953;-87
2023/08/14 09:04:40;;;;;;;;;;;;;;;31.01;46.56;99714.03;1088330;39;20943;-88
2023/08/14 09:05:43;;;;;;;;;;;;;;;31.16;45.82;99713.94;1087144;47;20083;-87
2023/08/14 09:06:44;;;;;;;;;;;;;;;31.25;45.61;99709.44;1087202;47;19965;-87
2023/08/14 09:07:47;;;;;;;;;;;;;;;31.17;45.99;99712.00;1086974;47;19939;-85
2023/08/14 09:08:48;;;;;;;;;;;;;;;31.28;45.70;99708.84;1086867;46;19964;-87
2023/08/14 09:09:51;;;;;;;;;;;;;;;31.34;45.20;99711.56;1086810;54;19969;-86
2023/08/14 09:10:52;;;;;;;;;;;;;;;31.17;45.35;99706.47;1087275;54;20869;-86
2023/08/14 09:11:56;;;;;;;;;;;;;;;30.73;45.33;99714.56;1087128;47;19939;-86
2023/08/14 09:12:56;;;;;;;;;;;;;;;30.47;45.51;99711.94;1087112;54;19969;-87
2023/08/14 09:14:01;;;;;;;;;;;;;;;30.55;46.14;99709.72;1087030;47;19939;-87
2023/08/14 09:15:04;;;;;;;;;;;;;;;30.73;45.84;99708.19;1087159;54;20014;-88
2023/08/14 09:16:10;;;;;;;;;;;;;;;30.85;45.06;99711.41;1087046;46;19999;-87
2023/08/14 09:17:11;;;;;;;;;;;;;;;30.96;45.55;99707.47;1087072;54;19969;-86
2023/08/14 09:18:14;;;;;;;;;;;;;;;31.06;44.79;99714.00;1086792;47;19939;-86
2023/08/14 09:19:15;;;;;;;;;;;;;;;31.21;44.82;99699.28;1086710;47;20897;-87
2023/08/14 09:20:19;;;;;;;;;;;;;;;31.36;44.39;99701.06;1086744;47;19939;-87
2023/08/14 09:21:20;;;;;;;;;;;;;;;31.45;43.79;99696.53;1087150;54;20018;-87
2023/08/14 09:22:21;;;;;;;;;;;;;;;31.56;44.10;99698.03;1087463;39;20779;-87
2023/08/14 09:23:25;;;;;;;;;;;;;;;31.76;43.89;99693.44;1087160;47;19939;-88
2023/08/14 09:24:26;;;;;;;;;;;;;;;31.85;43.72;99696.38;1087094;54;19974;-87
2023/08/14 09:25:29;;;;;;;;;;;;;;;31.61;43.03;99701.88;1086722;47;19939;-85
2023/08/14 09:26:32;;;;;;;;;;;;;;;31.79;42.10;99700.31;1087060;47;19938;-88
2023/08/14 09:27:35;;;;;;;;;;;;;;;32.00;42.37;99704.44;1088330;39;20816;-88
2023/08/14 09:28:36;;;;;;;;;;;;;;;32.24;42.66;99698.09;1086904;47;20049;-87
2023/08/14 09:29:41;;;;;;;;;;;;;;;32.44;41.83;99685.09;1086721;54;20828;-86
2023/08/14 09:30:43;;;;;;;;;;;;;;;32.61;41.71;99693.66;1087146;54;20734;-87
2023/08/14 09:31:50;;;;;;;;;;;;;;;32.41;42.02;99694.78;1086835;47;19953;-88
2023/08/14 09:32:50;;;;;;;;;;;;;;;32.40;41.76;99697.84;1087247;47;19950;-88
2023/08/14 09:33:54;;;;;;;;;;;;;;;32.26;41.29;99695.00;1087159;47;19943;-87
2023/08/14 09:34:58;;;;;;;;;;;;;;;31.80;41.81;99697.25;1087015;47;19938;-87
2023/08/14 09:36:01;;;;;;;;;;;;;;;31.78;41.60;99699.47;1088527;39;20642;-87
2023/08/14 09:37:03;;;;;;;;;;;;;;;31.43;42.06;99699.56;1087058;47;19955;-87
2023/08/14 09:38:07;;;;;;;;;;;;;;;31.70;42.02;99694.63;1086989;47;19998;-85
2023/08/14 09:39:09;;;;;;;;;;;;;;;31.72;41.58;99692.38;1086742;47;19943;-87
2023/08/14 09:40:15;;;;;;;;;;;;;;;31.77;41.50;99702.56;1086583;47;19946;-85
2023/08/14 09:41:15;;;;;;;;;;;;;;;31.85;40.84;99694.41;1086700;54;19954;-87
2023/08/14 09:42:19;;;;;;;;;;;;;;;31.96;40.74;99697.03;1086884;46;19946;-86
2023/08/14 09:43:20;;;;;;;;;;;;;;;32.16;40.83;99694.00;1087045;54;19991;-87
2023/08/14 09:44:23;;;;;;;;;;;;;;;32.01;40.83;99692.28;1086874;47;19938;-86
2023/08/14 09:45:27;;;;;;;;;;;;;;;31.64;40.95;99687.50;1088510;39;20926;-88
2023/08/14 09:46:31;;;;;;;;;;;;;;;31.47;40.93;99691.53;1086870;47;19930;-85
2023/08/14 09:47:34;;;;;;;;;;;;;;;31.70;40.62;99686.31;1086791;46;19939;-86
2023/08/14 09:48:42;;;;;;;;;;;;;;;31.65;40.11;99683.59;1086791;54;19942;-84
2023/08/14 09:49:44;;;;;;;;;;;;;;;31.83;39.36;99680.09;1086663;54;19943;-88
2023/08/14 09:50:50;;;;;;;;;;;;;;;31.98;39.19;99676.28;1086806;54;19942;-85
2023/08/14 09:51:54;;;;;;;;;;;;;;;32.10;39.62;99677.78;1086981;54;20759;-87
2023/08/14 09:52:58;;;;;;;;;;;;;;;32.25;39.01;99685.06;1086674;54;20778;-86
2023/08/14 09:53:59;;;;;;;;;;;;;;;32.31;38.81;99675.56;1086633;47;19965;-87
2023/08/14 09:55:00;;;;;;;;;;;;;;;32.43;39.34;99680.66;1086883;54;19971;-84
2023/08/14 09:56:04;;;;;;;;;;;;;;;32.50;39.28;99684.69;1086804;47;20026;-86
2023/08/14 09:57:05;;;;;;;;;;;;;;;32.71;39.06;99676.06;1086845;47;19939;-89
2023/08/14 09:58:08;;;;;;;;;;;;;;;32.39;39.19;99683.22;1087185;54;19943;-88
2023/08/14 09:59:09;;;;;;;;;;;;;;;32.16;39.78;99693.19;1087005;46;20030;-87
2023/08/14 10:00:13;;;;;;;;;;;;;;;32.01;40.05;99694.22;1087178;47;19938;-88
2023/08/14 10:01:15;;;;;;;;;;;;;;;32.32;39.64;99686.34;1087809;39;20690;-86
2023/08/14 10:02:19;;;;;;;;;;;;;;;32.24;39.49;99692.56;1086700;47;19938;-84
2023/08/14 10:03:23;;;;;;;;;;;;;;;32.42;39.59;99696.41;1086823;54;19946;-85
2023/08/14 10:04:29;;;;;;;;;;;;;;;32.59;39.14;99689.56;1087150;39;20797;-87
2023/08/14 10:05:30;;;;;;;;;;;;;;;32.76;38.45;99689.81;1087186;46;19969;-87
2023/08/14 10:06:34;;;;;;;;;;;;;;;33.02;38.35;99683.88;1087245;47;20042;-86
2023/08/14 10:07:36;;;;;;;;;;;;;;;33.21;38.28;99686.56;1086862;47;19938;-84
2023/08/14 10:08:41;;;;;;;;;;;;;;;33.31;37.92;99682.78;1086960;54;19948;-87
2023/08/14 10:09:43;;;;;;;;;;;;;;;33.31;37.87;99670.88;1086957;54;19942;-85
2023/08/14 10:10:47;;;;;;;;;;;;;;;33.41;37.97;99671.53;1086700;47;19965;-86
2023/08/14 10:11:48;;;;;;;;;;;;;;;33.34;37.67;99676.66;1086991;47;19949;-86
2023/08/14 10:12:53;;;;;;;;;;;;;;;33.43;36.79;99671.22;1086654;54;19970;-87
2023/08/14 10:13:57;;;;;;;;;;;;;;;33.24;37.33;99663.00;1090223;39;20746;-87
2023/08/14 10:15:03;;;;;;;;;;;;;;;33.41;37.11;99666.00;1086748;54;20006;-87
2023/08/14 10:16:06;;;;;;;;;;;;;;;33.50;37.52;99659.75;1087082;47;19998;-86
2023/08/14 10:17:15;;;;;;;;;;;;;;;33.61;37.15;99658.41;1087316;47;19990;-89
2023/08/14 10:18:16;;;;;;;;;;;;;;;33.58;36.71;99659.00;1086913;47;19964;-87
2023/08/14 10:19:25;;;;;;;;;;;;;;;33.65;36.08;99664.94;1086919;47;19938;-87
2023/08/14 10:20:27;;;;;;;;;;;;;;;33.64;36.29;99659.72;1087063;47;19939;-86
2023/08/14 10:21:32;;;;;;;;;;;;;;;33.71;36.08;99669.28;1089581;39;21149;-87
2023/08/14 10:22:34;;;;;;;;;;;;;;;33.77;36.37;99661.69;1087075;54;19942;-88
2023/08/14 10:23:38;;;;;;;;;;;;;;;33.79;36.20;99664.94;1087160;54;19982;-85
2023/08/14 10:24:40;;;;;;;;;;;;;;;33.60;36.28;99673.38;1087064;54;20771;-87
2023/08/14 10:25:47;;;;;;;;;;;;;;;33.17;36.82;99665.31;1087130;54;20014;-87
2023/08/14 10:26:48;;;;;;;;;;;;;;;33.25;36.62;99667.41;1086682;47;19939;-84
2023/08/14 10:27:52;;;;;;;;;;;;;;;32.79;37.69;99675.38;1086858;47;19947;-87
2023/08/14 10:28:53;;;;;;;;;;;;;;;32.59;38.48;99673.75;1086899;54;19943;-85
2023/08/14 10:29:57;;;;;;;;;;;;;;;32.48;38.85;99673.13;1086815;47;19939;-87
2023/08/14 10:30:59;;;;;;;;;;;;;;;32.78;38.42;99672.91;1087328;54;20007;-86
2023/08/14 10:32:03;;;;;;;;;;;;;;;33.10;38.20;99672.09;1086892;47;19939;-84
2023/08/14 10:33:05;;;;;;;;;;;;;;;32.91;37.98;99682.41;1086873;47;19938;-87
2023/08/14 10:34:08;;;;;;;;;;;;;;;32.81;38.27;99675.91;1086805;47;19954;-86
2023/08/14 10:35:12;;;;;;;;;;;;;;;32.83;38.74;99675.59;1087219;54;19942;-87
2023/08/14 10:36:20;;;;;;;;;;;;;;;32.70;38.12;99671.63;1087090;54;19968;-85
2023/08/14 10:37:25;;;;;;;;;;;;;;;32.96;37.95;99677.59;1087021;54;20884;-85
2023/08/14 10:38:41;;;;;;;;;;;;;;;33.04;37.81;99666.94;1087251;47;19939;-87
2023/08/14 10:39:42;;;;;;;;;;;;;;;33.10;38.23;99672.09;1087285;47;19939;-86
2023/08/14 10:40:52;;;;;;;;;;;;;;;33.37;37.67;99670.50;1087379;46;19938;-85
2023/08/14 10:41:57;;;;;;;;;;;;;;;33.43;37.19;99674.00;1087425;54;19942;-85
2023/08/14 10:43:01;;;;;;;;;;;;;;;33.42;37.62;99673.19;1087292;47;19945;-85
2023/08/14 10:44:05;;;;;;;;;;;;;;;33.21;37.32;99671.91;1087132;47;19938;-85
2023/08/14 10:45:09;;;;;;;;;;;;;;;33.16;37.34;99674.78;1087219;47;19998;-87
2023/08/14 10:46:14;;;;;;;;;;;;;;;33.48;36.95;99671.13;1087651;46;19961;-86
2023/08/14 10:47:17;;;;;;;;;;;;;;;33.74;36.85;99673.38;1087521;46;19939;-84
2023/08/14 10:48:19;;;;;;;;;;;;;;;33.80;36.71;99668.56;1089539;39;20168;-84
2023/08/14 10:49:23;;;;;;;;;;;;;;;33.93;36.75;99670.50;1087654;47;19923;-84
2023/08/14 10:50:28;;;;;;;;;;;;;;;34.00;36.38;99662.59;1087947;54;19970;-84
2023/08/14 10:51:37;;;;;;;;;;;;;;;34.19;36.57;99664.38;1088556;54;20264;-86
2023/08/14 10:52:38;;;;;;;;;;;;;;;34.27;36.20;99669.19;1088415;46;19923;-85
2023/08/14 10:53:42;;;;;;;;;;;;;;;34.39;36.31;99657.56;1091293;39;20725;-87
2023/08/14 10:54:44;;;;;;;;;;;;;;;34.42;35.95;99665.25;1088174;54;19979;-86
2023/08/14 10:55:48;;;;;;;;;;;;;;;34.53;36.31;99657.50;1089178;39;20925;-86
2023/08/14 10:56:57;;;;;;;;;;;;;;;34.63;36.16;99653.63;1087540;47;19963;-84
2023/08/14 10:58:00;;;;;;;;;;;;;;;34.66;35.73;99664.94;1087700;39;20753;-85
2023/08/14 10:59:02;;;;;;;;;;;;;;;34.60;35.88;99660.66;1087180;54;19958;-85
2023/08/14 11:00:06;;;;;;;;;;;;;;;34.41;36.22;99668.34;1087032;54;19943;-83
2023/08/14 11:01:08;;;;;;;;;;;;;;;34.26;36.04;99662.00;1087074;54;19943;-86
2023/08/14 11:02:17;;;;;;;;;;;;;;;34.30;36.52;99656.63;1087782;46;19965;-85
2023/08/14 11:03:18;;;;;;;;;;;;;;;34.16;36.77;99654.72;1087513;46;19938;-84
2023/08/14 11:04:22;;;;;;;;;;;;;;;33.94;36.47;99658.28;1090136;39;20859;-85
2023/08/14 11:05:34;;;;;;;;;;;;;;;33.97;37.20;99657.66;1087606;54;20034;-86
2023/08/14 11:06:54;;;;;;;;;;;;;;;33.82;37.13;99657.97;1087301;54;19943;-84
2023/08/14 11:07:56;;;;;;;;;;;;;;;33.63;37.46;99661.66;1087321;54;19949;-87
2023/08/14 11:09:01;;;;;;;;;;;;;;;33.68;37.89;99658.81;1089309;39;20906;-85
2023/08/14 11:10:04;;;;;;;;;;;;;;;33.60;37.94;99665.06;1087426;54;19968;-87
2023/08/14 11:11:07;;;;;;;;;;;;;;;33.31;38.26;99666.16;1087384;47;19945;-85
2023/08/14 11:12:09;;;;;;;;;;;;;;;33.43;38.06;99663.75;1087777;46;19958;-85
2023/08/14 11:13:14;;;;;;;;;;;;;;;33.34;38.48;99671.13;1087416;46;19939;-87
2023/08/14 11:14:15;;;;;;;;;;;;;;;33.15;38.35;99664.81;1087404;47;19942;-85
2023/08/14 11:15:18;;;;;;;;;;;;;;;33.27;38.29;99665.13;1087300;47;19973;-85
2023/08/14 11:16:19;;;;;;;;;;;;;;;33.20;38.33;99671.09;1087333;46;19938;-86
2023/08/14 11:17:23;;;;;;;;;;;;;;;32.92;38.30;99668.25;1087359;47;19939;-88
2023/08/14 11:18:24;;;;;;;;;;;;;;;32.75;39.12;99670.72;1087229;54;19942;-86
2023/08/14 11:19:25;;;;;;;;;;;;;;;32.89;38.84;99670.81;1087487;47;19965;-88
2023/08/14 11:20:31;;;;;;;;;;;;;;;32.70;39.60;99663.34;1087337;54;20095;-84
2023/08/14 11:21:34;;;;;;;;;;;;;;;32.50;39.79;99664.50;1087487;54;19968;-87
2023/08/14 11:22:37;;;;;;;;;;;;;;;32.44;40.00;99666.53;1087376;54;19943;-87
2023/08/14 11:23:38;;;;;;;;;;;;;;;32.27;40.46;99666.25;1088235;39;21134;-88
2023/08/14 11:24:42;;;;;;;;;;;;;;;32.10;40.54;99670.34;1087693;54;19954;-86
2023/08/14 11:25:43;;;;;;;;;;;;;;;32.02;41.10;99673.78;1087430;46;19939;-83
2023/08/14 11:26:44;;;;;;;;;;;;;;;31.85;41.54;99672.31;1087415;46;19968;-87
2023/08/14 11:27:52;;;;;;;;;;;;;;;31.72;41.86;99682.16;1090811;31;20728;-87
2023/08/14 11:28:54;;;;;;;;;;;;;;;31.72;42.07;99665.56;1087381;47;20697;-89
2023/08/14 11:29:59;;;;;;;;;;;;;;;31.81;42.39;99679.56;1087517;47;19938;-87
2023/08/14 11:31:00;;;;;;;;;;;;;;;31.93;42.01;99679.13;1087258;47;19965;-87
2023/08/14 11:32:04;;;;;;;;;;;;;;;32.08;41.86;99668.97;1087077;46;19965;-85
2023/08/14 11:33:05;;;;;;;;;;;;;;;32.18;41.80;99677.94;1086741;47;21225;-84
2023/08/14 11:34:08;;;;;;;;;;;;;;;32.28;41.77;99667.91;1087187;47;19940;-86
2023/08/14 11:35:10;;;;;;;;;;;;;;;32.34;41.75;99667.53;1087314;46;19998;-85
2023/08/14 11:36:18;;;;;;;;;;;;;;;32.18;42.36;99664.13;1087427;46;19951;-87
2023/08/14 11:37:19;;;;;;;;;;;;;;;32.27;42.30;99663.47;1087625;54;19943;-87
2023/08/14 11:38:24;;;;;;;;;;;;;;;32.23;41.89;99665.16;1089032;39;21064;-84
2023/08/14 11:39:26;;;;;;;;;;;;;;;32.20;42.06;99659.13;1089816;39;20213;-86
2023/08/14 11:40:29;;;;;;;;;;;;;;;32.36;42.19;99656.16;1090185;39;20603;-86
2023/08/14 11:41:33;;;;;;;;;;;;;;;32.48;41.59;99656.53;1087422;54;19942;-87
2023/08/14 11:42:37;;;;;;;;;;;;;;;32.60;41.43;99656.06;1087438;46;19954;-86
2023/08/14 11:43:38;;;;;;;;;;;;;;;32.57;41.36;99659.41;1087297;47;19945;-85
2023/08/14 11:44:39;;;;;;;;;;;;;;;32.48;41.09;99656.53;1087146;47;20855;-85
2023/08/14 11:45:42;;;;;;;;;;;;;;;32.53;40.83;99663.06;1087288;47;19946;-88
2023/08/14 11:46:43;;;;;;;;;;;;;;;32.54;40.93;99653.66;1087289;47;19939;-87
2023/08/14 11:47:47;;;;;;;;;;;;;;;32.60;40.82;99652.44;1087423;54;19942;-87
2023/08/14 11:49:52;;;;;;;;;;;;;;;32.50;40.85;99645.97;1087222;54;19967;-87
2023/08/14 11:50:53;;;;;;;;;;;;;;;32.54;40.93;99648.13;1087297;47;19939;-88
2023/08/14 11:51:59;;;;;;;;;;;;;;;32.49;40.99;99641.56;1087243;54;20748;-86
2023/08/14 11:53:00;;;;;;;;;;;;;;;32.35;41.47;99647.03;1087175;54;19951;-87
2023/08/14 11:54:04;;;;;;;;;;;;;;;31.98;41.68;99645.06;1087443;46;19938;-87
2023/08/14 11:55:05;;;;;;;;;;;;;;;31.95;41.83;99642.91;1091571;39;20804;-86
2023/08/14 11:56:08;;;;;;;;;;;;;;;31.94;41.86;99641.25;1087434;54;19943;-86
2023/08/14 11:57:13;;;;;;;;;;;;;;;31.88;42.32;99644.09;1087247;47;19939;-88
2023/08/14 11:58:16;;;;;;;;;;;;;;;31.82;42.59;99650.81;1087143;54;21015;-84
2023/08/14 11:59:17;;;;;;;;;;;;;;;31.72;42.83;99648.19;1087297;47;19934;-85
2023/08/14 12:00:21;;;;;;;;;;;;;;;31.81;42.66;99654.69;1087240;54;19967;-88
2023/08/14 12:01:22;;;;;;;;;;;;;;;31.69;42.67;99657.88;1087307;54;19946;-87
2023/08/14 12:02:26;;;;;;;;;;;;;;;31.88;42.62;99655.16;1087232;47;20010;-85
2023/08/14 12:03:27;;;;;;;;;;;;;;;31.94;42.76;99658.66;1087762;54;20024;-84
2023/08/14 12:04:30;;;;;;;;;;;;;;;32.01;42.38;99655.53;1087299;54;19950;-86
2023/08/14 12:05:31;;;;;;;;;;;;;;;32.11;42.80;99655.41;1087926;54;19939;-85
2023/08/14 12:06:35;;;;;;;;;;;;;;;32.04;42.79;99658.53;1087102;47;19964;-86
2023/08/14 12:07:40;;;;;;;;;;;;;;;32.07;42.94;99654.34;1088415;39;20758;-86
2023/08/14 12:08:44;;;;;;;;;;;;;;;32.05;42.59;99664.88;1087143;47;19939;-86
2023/08/14 12:09:45;;;;;;;;;;;;;;;32.04;42.62;99665.97;1087214;54;19942;-87
2023/08/14 12:10:48;;;;;;;;;;;;;;;32.10;42.25;99664.81;1087380;54;20029;-86